createdAt,value
2019-03-03T00:00:02.389Z,999.78
2019-03-03T00:01:02.383Z,999.75
2019-03-03T00:02:02.380Z,999.77
2019-03-03T00:03:02.377Z,999.77
2019-03-03T00:04:02.368Z,999.74
2019-03-03T00:05:02.365Z,999.77
2019-03-03T00:06:02.361Z,999.77
2019-03-03T00:07:02.356Z,999.73
2019-03-03T00:08:02.350Z,999.73
2019-03-03T00:09:02.343Z,999.72
2019-03-03T00:10:02.339Z,999.77
2019-03-03T00:11:02.334Z,999.78
2019-03-03T00:12:02.328Z,999.70
2019-03-03T00:13:02.324Z,999.73
2019-03-03T00:14:02.319Z,999.75
2019-03-03T00:15:02.314Z,999.71
2019-03-03T00:16:02.308Z,999.73
2019-03-03T00:17:02.304Z,999.71
2019-03-03T00:18:02.301Z,999.72
2019-03-03T00:19:02.294Z,999.71
2019-03-03T00:20:02.290Z,999.72
2019-03-03T00:21:02.303Z,999.74
2019-03-03T00:22:02.280Z,999.68
2019-03-03T00:23:02.275Z,999.67
2019-03-03T00:24:02.269Z,999.64
2019-03-03T00:25:02.266Z,999.59
2019-03-03T00:26:02.260Z,999.63
2019-03-03T00:27:02.254Z,999.55
2019-03-03T00:28:02.248Z,999.56
2019-03-03T00:29:02.245Z,999.54
2019-03-03T00:30:02.239Z,999.53
2019-03-03T00:31:02.235Z,999.61
2019-03-03T00:32:02.228Z,999.59
2019-03-03T00:33:02.266Z,999.57
2019-03-03T00:34:02.219Z,999.54
2019-03-03T00:35:02.215Z,999.49
2019-03-03T00:36:02.208Z,999.46
2019-03-03T00:37:02.205Z,999.49
2019-03-03T00:38:02.200Z,999.57
2019-03-03T00:39:02.195Z,999.44
2019-03-03T00:40:02.188Z,999.46
2019-03-03T00:41:02.185Z,999.44
2019-03-03T00:42:02.180Z,999.39
2019-03-03T00:43:02.175Z,999.38
2019-03-03T00:44:02.171Z,999.41
2019-03-03T00:45:02.166Z,999.39
2019-03-03T00:46:02.165Z,999.38
2019-03-03T00:47:02.155Z,999.34
2019-03-03T00:48:02.150Z,999.40
2019-03-03T00:49:02.144Z,999.43
2019-03-03T00:50:02.141Z,999.37
2019-03-03T00:51:02.135Z,999.36
2019-03-03T00:52:02.129Z,999.35
2019-03-03T00:53:02.124Z,999.36
2019-03-03T00:54:02.121Z,999.41
2019-03-03T00:55:02.117Z,999.36
2019-03-03T00:56:02.109Z,999.33
2019-03-03T00:57:02.106Z,999.34
2019-03-03T00:58:02.145Z,999.35
2019-03-03T00:59:02.097Z,999.34
2019-03-03T01:00:02.092Z,999.32
2019-03-03T01:01:02.087Z,999.32
2019-03-03T01:02:02.081Z,999.32
2019-03-03T01:03:02.077Z,999.24
2019-03-03T01:04:02.071Z,999.31
2019-03-03T01:05:02.067Z,999.25
2019-03-03T01:06:02.063Z,999.20
2019-03-03T01:07:02.058Z,999.22
2019-03-03T01:08:02.054Z,999.22
2019-03-03T01:09:02.050Z,999.20
2019-03-03T01:10:02.051Z,999.13
2019-03-03T01:11:02.040Z,999.12
2019-03-03T01:12:02.035Z,999.10
2019-03-03T01:13:02.031Z,999.06
2019-03-03T01:14:02.026Z,999.12
2019-03-03T01:15:02.022Z,999.05
2019-03-03T01:16:02.015Z,999.00
2019-03-03T01:17:02.009Z,998.97
2019-03-03T01:18:02.005Z,999.00
2019-03-03T01:19:02.000Z,998.99
2019-03-03T01:20:01.995Z,999.04
2019-03-03T01:21:01.991Z,999.01
2019-03-03T01:22:01.992Z,998.95
2019-03-03T01:23:03.241Z,998.95
2019-03-03T01:24:01.982Z,999.00
2019-03-03T01:25:01.976Z,998.96
2019-03-03T01:26:01.966Z,998.90
2019-03-03T01:27:01.963Z,998.90
2019-03-03T01:28:01.958Z,998.88
2019-03-03T01:29:01.953Z,998.90
2019-03-03T01:30:01.948Z,998.90
2019-03-03T01:31:01.942Z,998.79
2019-03-03T01:32:01.936Z,998.80
2019-03-03T01:33:01.932Z,998.82
2019-03-03T01:34:01.934Z,998.80
2019-03-03T01:35:01.924Z,998.87
2019-03-03T01:36:01.918Z,998.81
2019-03-03T01:37:01.913Z,998.82
2019-03-03T01:38:01.909Z,998.81
2019-03-03T01:39:01.905Z,998.73
2019-03-03T01:40:01.902Z,998.80
2019-03-03T01:41:01.895Z,998.77
2019-03-03T01:42:01.891Z,998.75
2019-03-03T01:43:01.887Z,998.77
2019-03-03T01:44:01.880Z,998.85
2019-03-03T01:45:01.875Z,998.82
2019-03-03T01:46:01.872Z,998.70
2019-03-03T01:47:01.866Z,998.66
2019-03-03T01:48:01.862Z,998.65
2019-03-03T01:49:01.855Z,998.71
2019-03-03T01:50:01.864Z,998.75
2019-03-03T01:51:01.849Z,998.73
2019-03-03T01:52:01.842Z,998.76
2019-03-03T01:53:01.837Z,998.72
2019-03-03T01:54:01.837Z,998.72
2019-03-03T01:55:01.827Z,998.62
2019-03-03T01:56:01.822Z,998.63
2019-03-03T01:57:01.818Z,998.53
2019-03-03T01:58:01.815Z,998.65
2019-03-03T01:59:01.810Z,998.65
2019-03-03T02:00:01.809Z,998.61
2019-03-03T02:01:01.799Z,998.52
2019-03-03T02:02:01.794Z,998.48
2019-03-03T02:03:01.796Z,998.55
2019-03-03T02:04:01.790Z,998.55
2019-03-03T02:05:01.780Z,998.46
2019-03-03T02:06:01.774Z,998.47
2019-03-03T02:07:01.823Z,998.48
2019-03-03T02:08:01.766Z,998.50
2019-03-03T02:09:01.764Z,998.41
2019-03-03T02:10:01.757Z,998.45
2019-03-03T02:11:01.752Z,998.45
2019-03-03T02:12:01.749Z,998.46
2019-03-03T02:13:01.743Z,998.39
2019-03-03T02:14:01.737Z,998.40
2019-03-03T02:15:01.734Z,998.36
2019-03-03T02:16:01.727Z,998.35
2019-03-03T02:17:01.724Z,998.32
2019-03-03T02:18:01.720Z,998.23
2019-03-03T02:19:01.714Z,998.29
2019-03-03T02:20:01.708Z,998.17
2019-03-03T02:21:01.705Z,998.17
2019-03-03T02:22:01.703Z,998.15
2019-03-03T02:23:01.699Z,998.15
2019-03-03T02:24:01.689Z,998.19
2019-03-03T02:25:01.686Z,998.12
2019-03-03T02:26:01.683Z,998.14
2019-03-03T02:27:01.675Z,998.17
2019-03-03T02:28:01.671Z,998.06
2019-03-03T02:29:01.666Z,998.10
2019-03-03T02:30:01.663Z,998.13
2019-03-03T02:31:01.657Z,998.05
2019-03-03T02:32:01.653Z,998.11
2019-03-03T02:33:01.647Z,998.12
2019-03-03T02:34:01.643Z,998.01
2019-03-03T02:35:01.642Z,997.98
2019-03-03T02:36:01.649Z,997.94
2019-03-03T02:37:01.630Z,997.95
2019-03-03T02:38:01.642Z,997.93
2019-03-03T02:39:01.623Z,997.91
2019-03-03T02:40:01.618Z,997.99
2019-03-03T02:41:01.611Z,997.91
2019-03-03T02:42:01.610Z,997.90
2019-03-03T02:43:01.600Z,997.90
2019-03-03T02:44:01.595Z,997.88
2019-03-03T02:45:01.590Z,997.92
2019-03-03T02:46:01.587Z,997.85
2019-03-03T02:47:01.582Z,997.91
2019-03-03T02:48:01.574Z,997.84
2019-03-03T02:49:01.571Z,997.87
2019-03-03T02:50:01.566Z,997.93
2019-03-03T02:51:01.574Z,997.87
2019-03-03T02:52:01.569Z,997.86
2019-03-03T02:53:01.551Z,997.86
2019-03-03T02:54:01.549Z,997.85
2019-03-03T02:55:01.544Z,997.79
2019-03-03T02:56:01.537Z,997.76
2019-03-03T02:57:01.532Z,997.78
2019-03-03T02:58:01.531Z,997.73
2019-03-03T02:59:01.529Z,997.66
2019-03-03T03:00:01.523Z,997.64
2019-03-03T03:01:01.513Z,997.64
2019-03-03T03:02:01.517Z,997.61
2019-03-03T03:03:01.505Z,997.60
2019-03-03T03:04:01.503Z,997.56
2019-03-03T03:05:01.570Z,997.58
2019-03-03T03:06:01.489Z,997.59
2019-03-03T03:07:01.487Z,997.54
2019-03-03T03:08:01.479Z,997.58
2019-03-03T03:09:01.476Z,997.56
2019-03-03T03:10:01.470Z,997.54
2019-03-03T03:11:01.466Z,997.54
2019-03-03T03:12:01.459Z,997.54
2019-03-03T03:13:01.455Z,997.54
2019-03-03T03:14:01.458Z,997.56
2019-03-03T03:15:01.488Z,997.55
2019-03-03T03:16:01.441Z,997.59
2019-03-03T03:17:01.436Z,997.64
2019-03-03T03:18:01.431Z,997.54
2019-03-03T03:19:01.432Z,997.62
2019-03-03T03:20:01.423Z,997.55
2019-03-03T03:21:01.418Z,997.57
2019-03-03T03:22:01.413Z,997.58
2019-03-03T03:23:01.414Z,997.58
2019-03-03T03:24:01.412Z,997.50
2019-03-03T03:25:01.400Z,997.52
2019-03-03T03:26:01.392Z,997.49
2019-03-03T03:27:01.393Z,997.49
2019-03-03T03:28:01.385Z,997.55
2019-03-03T03:29:01.384Z,997.48
2019-03-03T03:30:01.378Z,997.54
2019-03-03T03:31:01.372Z,997.57
2019-03-03T03:32:01.422Z,997.59
2019-03-03T03:33:01.388Z,997.48
2019-03-03T03:34:01.384Z,997.51
2019-03-03T03:35:01.355Z,997.49
2019-03-03T03:36:01.343Z,997.47
2019-03-03T03:37:01.341Z,997.44
2019-03-03T03:38:01.337Z,997.51
2019-03-03T03:39:01.336Z,997.48
2019-03-03T03:40:01.329Z,997.45
2019-03-03T03:41:01.322Z,997.46
2019-03-03T03:42:01.321Z,997.39
2019-03-03T03:43:01.314Z,997.32
2019-03-03T03:44:01.308Z,997.33
2019-03-03T03:45:01.306Z,997.32
2019-03-03T03:46:01.297Z,997.31
2019-03-03T03:47:01.293Z,997.24
2019-03-03T03:48:01.288Z,997.19
2019-03-03T03:49:01.288Z,997.21
2019-03-03T03:50:01.280Z,997.24
2019-03-03T03:51:01.275Z,997.24
2019-03-03T03:52:01.269Z,997.18
2019-03-03T03:53:01.266Z,997.24
2019-03-03T03:54:01.259Z,997.23
2019-03-03T03:55:01.294Z,997.30
2019-03-03T03:56:01.250Z,997.18
2019-03-03T03:57:01.245Z,997.18
2019-03-03T03:58:01.240Z,997.22
2019-03-03T03:59:01.237Z,997.26
2019-03-03T04:00:01.230Z,997.21
2019-03-03T04:01:01.227Z,997.20
2019-03-03T04:02:01.223Z,997.29
2019-03-03T04:03:01.218Z,997.21
2019-03-03T04:04:01.213Z,997.10
2019-03-03T04:05:01.225Z,997.18
2019-03-03T04:06:01.205Z,997.17
2019-03-03T04:07:01.199Z,997.13
2019-03-03T04:08:01.193Z,997.11
2019-03-03T04:09:02.052Z,997.16
2019-03-03T04:10:01.190Z,997.11
2019-03-03T04:11:01.178Z,997.20
2019-03-03T04:12:01.174Z,997.16
2019-03-03T04:13:01.169Z,997.13
2019-03-03T04:14:01.164Z,997.13
2019-03-03T04:15:01.174Z,997.19
2019-03-03T04:16:01.155Z,997.15
2019-03-03T04:17:01.152Z,997.13
2019-03-03T04:18:01.143Z,997.10
2019-03-03T04:19:01.141Z,997.11
2019-03-03T04:20:01.136Z,997.17
2019-03-03T04:21:01.132Z,997.14
2019-03-03T04:22:01.131Z,997.11
2019-03-03T04:23:01.120Z,997.07
2019-03-03T04:24:01.139Z,997.10
2019-03-03T04:25:01.116Z,997.10
2019-03-03T04:26:01.107Z,997.10
2019-03-03T04:27:01.103Z,997.10
2019-03-03T04:28:01.097Z,997.09
2019-03-03T04:29:01.091Z,997.08
2019-03-03T04:30:01.089Z,997.16
2019-03-03T04:31:01.083Z,997.10
2019-03-03T04:32:01.076Z,997.11
2019-03-03T04:33:01.073Z,997.08
2019-03-03T04:34:01.076Z,997.03
2019-03-03T04:35:01.063Z,997.05
2019-03-03T04:36:01.058Z,997.02
2019-03-03T04:37:01.054Z,996.98
2019-03-03T04:38:01.048Z,996.98
2019-03-03T04:39:01.044Z,996.99
2019-03-03T04:40:01.040Z,996.97
2019-03-03T04:41:01.033Z,997.06
2019-03-03T04:42:01.029Z,996.92
2019-03-03T04:43:01.024Z,997.03
2019-03-03T04:44:01.018Z,996.94
2019-03-03T04:45:01.013Z,996.90
2019-03-03T04:46:01.011Z,996.83
2019-03-03T04:47:01.005Z,996.91
2019-03-03T04:48:00.999Z,996.84
2019-03-03T04:49:00.995Z,996.77
2019-03-03T04:50:00.990Z,996.76
2019-03-03T04:51:00.987Z,996.75
2019-03-03T04:52:00.979Z,996.78
2019-03-03T04:53:00.975Z,996.73
2019-03-03T04:54:00.973Z,996.73
2019-03-03T04:55:00.966Z,996.73
2019-03-03T04:56:00.960Z,996.70
2019-03-03T04:57:00.955Z,996.70
2019-03-03T04:58:00.949Z,996.70
2019-03-03T04:59:00.944Z,996.72
2019-03-03T05:00:00.991Z,996.71
2019-03-03T05:01:00.934Z,996.68
2019-03-03T05:02:00.929Z,996.66
2019-03-03T05:03:00.928Z,996.69
2019-03-03T05:04:00.918Z,996.71
2019-03-03T05:05:00.914Z,996.65
2019-03-03T05:06:00.909Z,996.71
2019-03-03T05:07:00.904Z,996.71
2019-03-03T05:08:00.900Z,996.64
2019-03-03T05:09:00.895Z,996.65
2019-03-03T05:10:00.891Z,996.53
2019-03-03T05:11:00.887Z,996.56
2019-03-03T05:12:00.878Z,996.52
2019-03-03T05:13:00.873Z,996.57
2019-03-03T05:14:00.869Z,996.61
2019-03-03T05:15:00.864Z,996.56
2019-03-03T05:16:00.858Z,996.52
2019-03-03T05:17:00.852Z,996.51
2019-03-03T05:18:00.848Z,996.50
2019-03-03T05:19:00.843Z,996.53
2019-03-03T05:20:00.838Z,996.47
2019-03-03T05:21:00.837Z,996.56
2019-03-03T05:22:00.828Z,996.48
2019-03-03T05:23:00.823Z,996.56
2019-03-03T05:24:00.818Z,996.49
2019-03-03T05:25:00.825Z,996.51
2019-03-03T05:26:00.809Z,996.41
2019-03-03T05:27:00.804Z,996.52
2019-03-03T05:28:00.798Z,996.57
2019-03-03T05:29:00.795Z,996.51
2019-03-03T05:30:00.788Z,996.42
2019-03-03T05:31:00.783Z,996.39
2019-03-03T05:32:00.777Z,996.40
2019-03-03T05:33:00.772Z,996.48
2019-03-03T05:34:00.767Z,996.45
2019-03-03T05:35:00.764Z,996.43
2019-03-03T05:36:00.756Z,996.33
2019-03-03T05:37:00.753Z,996.42
2019-03-03T05:38:00.747Z,996.41
2019-03-03T05:39:00.743Z,996.42
2019-03-03T05:40:00.738Z,996.50
2019-03-03T05:41:00.733Z,996.45
2019-03-03T05:42:00.727Z,996.32
2019-03-03T05:43:00.721Z,996.36
2019-03-03T05:44:00.718Z,996.40
2019-03-03T05:45:00.715Z,996.38
2019-03-03T05:46:00.708Z,996.34
2019-03-03T05:47:00.703Z,996.32
2019-03-03T05:48:00.697Z,996.38
2019-03-03T05:49:00.693Z,996.31
2019-03-03T05:50:00.687Z,996.30
2019-03-03T05:51:00.681Z,996.41
2019-03-03T05:52:00.677Z,996.30
2019-03-03T05:53:00.670Z,996.30
2019-03-03T05:54:00.666Z,996.31
2019-03-03T05:55:00.662Z,996.25
2019-03-03T05:56:00.659Z,996.25
2019-03-03T05:57:00.651Z,996.21
2019-03-03T05:58:00.645Z,996.22
2019-03-03T05:59:00.641Z,996.22
2019-03-03T06:00:00.637Z,996.32
2019-03-03T06:01:00.630Z,996.21
2019-03-03T06:02:00.628Z,996.31
2019-03-03T06:03:00.622Z,996.22
2019-03-03T06:04:00.616Z,996.24
2019-03-03T06:05:00.610Z,996.35
2019-03-03T06:06:00.608Z,996.24
2019-03-03T06:07:00.603Z,996.23
2019-03-03T06:08:00.596Z,996.26
2019-03-03T06:09:00.625Z,996.27
2019-03-03T06:10:00.585Z,996.27
2019-03-03T06:11:00.581Z,996.25
2019-03-03T06:12:00.574Z,996.28
2019-03-03T06:13:00.570Z,996.24
2019-03-03T06:14:00.564Z,996.20
2019-03-03T06:15:00.573Z,996.27
2019-03-03T06:16:00.553Z,996.32
2019-03-03T06:17:00.548Z,996.25
2019-03-03T06:18:00.544Z,996.23
2019-03-03T06:19:00.540Z,996.31
2019-03-03T06:20:00.533Z,996.28
2019-03-03T06:21:00.529Z,996.25
2019-03-03T06:22:00.523Z,996.29
2019-03-03T06:23:00.518Z,996.35
2019-03-03T06:24:00.514Z,996.31
2019-03-03T06:25:00.508Z,996.27
2019-03-03T06:26:00.505Z,996.29
2019-03-03T06:27:00.500Z,996.32
2019-03-03T06:28:00.493Z,996.34
2019-03-03T06:29:00.521Z,996.35
2019-03-03T06:30:00.484Z,996.30
2019-03-03T06:31:00.477Z,996.30
2019-03-03T06:32:00.472Z,996.33
2019-03-03T06:33:00.466Z,996.29
2019-03-03T06:34:00.461Z,996.32
2019-03-03T06:35:00.457Z,996.36
2019-03-03T06:36:00.450Z,996.33
2019-03-03T06:37:00.446Z,996.33
2019-03-03T06:38:00.441Z,996.25
2019-03-03T06:39:00.436Z,996.34
2019-03-03T06:40:00.436Z,996.26
2019-03-03T06:41:00.425Z,996.23
2019-03-03T06:42:00.421Z,996.21
2019-03-03T06:43:00.414Z,996.25
2019-03-03T06:44:00.409Z,996.24
2019-03-03T06:45:00.403Z,996.17
2019-03-03T06:46:00.399Z,996.22
2019-03-03T06:47:00.394Z,996.25
2019-03-03T06:48:00.387Z,996.18
2019-03-03T06:49:00.384Z,996.26
2019-03-03T06:50:00.379Z,996.17
2019-03-03T06:51:00.373Z,996.21
2019-03-03T06:52:00.368Z,996.21
2019-03-03T06:53:00.362Z,996.21
2019-03-03T06:54:00.357Z,996.17
2019-03-03T06:55:00.369Z,996.18
2019-03-03T06:56:00.346Z,996.19
2019-03-03T06:57:00.341Z,996.22
2019-03-03T06:58:00.336Z,996.23
2019-03-03T06:59:00.331Z,996.13
2019-03-03T07:00:00.344Z,996.26
2019-03-03T07:01:00.321Z,996.13
2019-03-03T07:02:00.316Z,996.24
2019-03-03T07:03:00.312Z,996.27
2019-03-03T07:04:00.305Z,996.22
2019-03-03T07:05:00.299Z,996.27
2019-03-03T07:06:00.295Z,996.24
2019-03-03T07:07:00.289Z,996.24
2019-03-03T07:08:00.284Z,996.20
2019-03-03T07:09:00.282Z,996.22
2019-03-03T07:10:00.307Z,996.24
2019-03-03T07:11:00.268Z,996.20
2019-03-03T07:12:00.264Z,996.16
2019-03-03T07:13:00.258Z,996.20
2019-03-03T07:14:00.254Z,996.17
2019-03-03T07:15:00.343Z,996.24
2019-03-03T07:16:00.242Z,996.15
2019-03-03T07:17:00.238Z,996.13
2019-03-03T07:18:00.232Z,996.14
2019-03-03T07:19:00.227Z,996.19
2019-03-03T07:20:00.310Z,996.29
2019-03-03T07:21:00.216Z,996.20
2019-03-03T07:22:00.211Z,996.27
2019-03-03T07:23:00.208Z,996.21
2019-03-03T07:24:00.200Z,996.23
2019-03-03T07:25:00.290Z,996.22
2019-03-03T07:26:00.190Z,996.20
2019-03-03T07:27:00.184Z,996.16
2019-03-03T07:28:00.179Z,996.18
2019-03-03T07:29:00.176Z,996.14
2019-03-03T07:30:00.258Z,996.23
2019-03-03T07:31:00.165Z,996.17
2019-03-03T07:32:00.159Z,996.17
2019-03-03T07:33:00.152Z,996.18
2019-03-03T07:34:00.149Z,996.13
2019-03-03T07:35:00.270Z,996.15
2019-03-03T07:36:00.138Z,996.14
2019-03-03T07:37:00.133Z,996.17
2019-03-03T07:38:00.129Z,996.14
2019-03-03T07:39:00.123Z,996.16
2019-03-03T07:40:00.286Z,996.20
2019-03-03T07:41:00.112Z,996.27
2019-03-03T07:42:00.106Z,996.21
2019-03-03T07:43:00.105Z,996.18
2019-03-03T07:44:00.095Z,996.23
2019-03-03T07:45:00.279Z,996.23
2019-03-03T07:46:00.087Z,996.28
2019-03-03T07:47:00.081Z,996.26
2019-03-03T07:48:00.074Z,996.26
2019-03-03T07:49:00.070Z,996.27
2019-03-03T07:50:00.106Z,996.29
2019-03-03T07:51:00.060Z,996.27
2019-03-03T07:52:00.054Z,996.32
2019-03-03T07:53:00.051Z,996.25
2019-03-03T07:54:00.046Z,996.31
2019-03-03T07:55:00.041Z,996.31
2019-03-03T07:56:00.035Z,996.28
2019-03-03T07:57:00.030Z,996.25
2019-03-03T07:58:00.024Z,996.33
2019-03-03T07:59:00.019Z,996.30
2019-03-03T08:00:00.014Z,996.31
2019-03-03T08:01:00.008Z,996.28
2019-03-03T08:02:00.003Z,996.32
2019-03-03T08:02:59.998Z,996.35
2019-03-03T08:03:59.996Z,996.37
2019-03-03T08:04:59.988Z,996.35
2019-03-03T08:05:59.984Z,996.32
2019-03-03T08:06:59.978Z,996.36
2019-03-03T08:07:59.972Z,996.33
2019-03-03T08:08:59.968Z,996.31
2019-03-03T08:09:59.964Z,996.25
2019-03-03T08:10:59.957Z,996.35
2019-03-03T08:11:59.951Z,996.29
2019-03-03T08:13:08.888Z,996.33
2019-03-03T08:13:59.949Z,996.31
2019-03-03T08:14:59.937Z,996.34
2019-03-03T08:15:59.932Z,996.33
2019-03-03T08:16:59.927Z,996.27
2019-03-03T08:17:59.923Z,996.29
2019-03-03T08:18:59.923Z,996.32
2019-03-03T08:19:59.911Z,996.28
2019-03-03T08:20:59.906Z,996.28
2019-03-03T08:21:59.902Z,996.33
2019-03-03T08:22:59.897Z,996.34
2019-03-03T08:23:59.893Z,996.34
2019-03-03T08:24:59.885Z,996.26
2019-03-03T08:25:59.881Z,996.32
2019-03-03T08:26:59.876Z,996.31
2019-03-03T08:27:59.872Z,996.31
2019-03-03T08:28:59.865Z,996.34
2019-03-03T08:29:59.862Z,996.34
2019-03-03T08:30:59.863Z,996.37
2019-03-03T08:31:59.849Z,996.39
2019-03-03T08:32:59.845Z,996.33
2019-03-03T08:33:59.844Z,996.38
2019-03-03T08:34:59.836Z,996.35
2019-03-03T08:35:59.830Z,996.41
2019-03-03T08:37:00.328Z,996.39
2019-03-03T08:37:59.821Z,996.40
2019-03-03T08:38:59.816Z,996.35
2019-03-03T08:39:59.811Z,996.34
2019-03-03T08:40:59.805Z,996.37
2019-03-03T08:41:59.800Z,996.32
2019-03-03T08:42:59.797Z,996.38
2019-03-03T08:43:59.789Z,996.37
2019-03-03T08:44:59.785Z,996.38
2019-03-03T08:45:59.781Z,996.41
2019-03-03T08:46:59.775Z,996.39
2019-03-03T08:47:59.771Z,996.32
2019-03-03T08:48:59.765Z,996.35
2019-03-03T08:49:59.761Z,996.32
2019-03-03T08:50:59.755Z,996.29
2019-03-03T08:51:59.750Z,996.36
2019-03-03T08:52:59.745Z,996.37
2019-03-03T08:53:59.744Z,996.35
2019-03-03T08:55:00.179Z,996.35
2019-03-03T08:55:59.730Z,996.36
2019-03-03T08:56:59.726Z,996.29
2019-03-03T08:57:59.723Z,996.32
2019-03-03T08:58:59.717Z,996.35
2019-03-03T08:59:59.710Z,996.30
2019-03-03T09:00:59.707Z,996.37
2019-03-03T09:01:59.701Z,996.33
2019-03-03T09:02:59.696Z,996.31
2019-03-03T09:03:59.692Z,996.38
2019-03-03T09:04:59.687Z,996.29
2019-03-03T09:05:59.682Z,996.33
2019-03-03T09:06:59.677Z,996.32
2019-03-03T09:07:59.672Z,996.37
2019-03-03T09:08:59.717Z,996.32
2019-03-03T09:09:59.662Z,996.32
2019-03-03T09:10:59.658Z,996.19
2019-03-03T09:11:59.653Z,996.24
2019-03-03T09:12:59.649Z,996.32
2019-03-03T09:13:59.643Z,996.37
2019-03-03T09:14:59.638Z,996.37
2019-03-03T09:15:59.682Z,996.31
2019-03-03T09:16:59.635Z,996.30
2019-03-03T09:17:59.623Z,996.27
2019-03-03T09:18:59.620Z,996.30
2019-03-03T09:19:59.612Z,996.27
2019-03-03T09:20:59.607Z,996.30
2019-03-03T09:21:59.604Z,996.30
2019-03-03T09:22:59.600Z,996.29
2019-03-03T09:23:59.593Z,996.41
2019-03-03T09:24:59.593Z,996.33
2019-03-03T09:25:59.590Z,996.39
2019-03-03T09:26:59.581Z,996.21
2019-03-03T09:27:59.574Z,996.30
2019-03-03T09:28:59.573Z,996.32
2019-03-03T09:29:59.564Z,996.22
2019-03-03T09:30:59.561Z,996.19
2019-03-03T09:31:59.554Z,996.27
2019-03-03T09:32:59.550Z,996.29
2019-03-03T09:33:59.545Z,996.28
2019-03-03T09:34:59.540Z,996.28
2019-03-03T09:35:59.534Z,996.31
2019-03-03T09:36:59.534Z,996.26
2019-03-03T09:37:59.525Z,996.22
2019-03-03T09:38:59.522Z,996.26
2019-03-03T09:40:08.838Z,996.31
2019-03-03T09:40:59.512Z,996.20
2019-03-03T09:41:59.506Z,996.19
2019-03-03T09:42:59.503Z,996.27
2019-03-03T09:43:59.496Z,996.22
2019-03-03T09:44:59.491Z,996.23
2019-03-03T09:45:59.487Z,996.15
2019-03-03T09:46:59.481Z,996.17
2019-03-03T09:47:59.479Z,996.26
2019-03-03T09:48:59.471Z,996.21
2019-03-03T09:49:59.468Z,996.17
2019-03-03T09:50:59.465Z,996.14
2019-03-03T09:51:59.457Z,996.20
2019-03-03T09:52:59.453Z,996.17
2019-03-03T09:53:59.449Z,996.21
2019-03-03T09:54:59.444Z,996.17
2019-03-03T09:55:59.438Z,996.20
2019-03-03T09:56:59.434Z,996.16
2019-03-03T09:57:59.431Z,996.11
2019-03-03T09:58:59.426Z,996.20
2019-03-03T09:59:59.421Z,996.22
2019-03-03T10:00:59.415Z,996.16
2019-03-03T10:01:59.410Z,996.18
2019-03-03T10:02:59.406Z,996.20
2019-03-03T10:03:59.400Z,996.17
2019-03-03T10:04:59.395Z,996.17
2019-03-03T10:05:59.390Z,996.09
2019-03-03T10:06:59.386Z,996.22
2019-03-03T10:07:59.383Z,996.18
2019-03-03T10:08:59.377Z,996.15
2019-03-03T10:09:59.393Z,996.11
2019-03-03T10:10:59.368Z,996.13
2019-03-03T10:11:59.363Z,996.06
2019-03-03T10:12:59.360Z,996.06
2019-03-03T10:13:59.353Z,996.07
2019-03-03T10:14:59.349Z,996.02
2019-03-03T10:15:59.348Z,996.07
2019-03-03T10:16:59.342Z,996.08
2019-03-03T10:17:59.334Z,996.07
2019-03-03T10:19:06.998Z,996.06
2019-03-03T10:19:59.324Z,996.08
2019-03-03T10:20:59.322Z,996.14
2019-03-03T10:21:59.317Z,996.09
2019-03-03T10:22:59.311Z,996.04
2019-03-03T10:23:59.306Z,996.11
2019-03-03T10:24:59.301Z,996.04
2019-03-03T10:25:59.299Z,996.17
2019-03-03T10:26:59.294Z,996.12
2019-03-03T10:27:59.288Z,996.10
2019-03-03T10:28:59.284Z,996.14
2019-03-03T10:29:59.280Z,996.06
2019-03-03T10:30:59.284Z,996.13
2019-03-03T10:31:59.270Z,996.07
2019-03-03T10:32:59.264Z,996.12
2019-03-03T10:33:59.260Z,996.02
2019-03-03T10:34:59.256Z,996.02
2019-03-03T10:35:59.252Z,996.01
2019-03-03T10:36:59.247Z,995.99
2019-03-03T10:37:59.242Z,996.05
2019-03-03T10:38:59.239Z,996.06
2019-03-03T10:39:59.233Z,996.13
2019-03-03T10:40:59.229Z,996.05
2019-03-03T10:41:59.225Z,996.04
2019-03-03T10:42:59.219Z,996.00
2019-03-03T10:43:59.215Z,996.08
2019-03-03T10:44:59.209Z,996.01
2019-03-03T10:45:59.205Z,996.06
2019-03-03T10:46:59.202Z,995.87
2019-03-03T10:47:59.195Z,996.02
2019-03-03T10:48:59.191Z,995.95
2019-03-03T10:49:59.188Z,996.01
2019-03-03T10:50:59.184Z,996.03
2019-03-03T10:51:59.178Z,996.00
2019-03-03T10:52:59.174Z,995.96
2019-03-03T10:53:59.170Z,996.09
2019-03-03T10:54:59.165Z,996.00
2019-03-03T10:55:59.159Z,996.05
2019-03-03T10:56:59.154Z,996.04
2019-03-03T10:57:59.151Z,995.98
2019-03-03T10:58:59.146Z,996.05
2019-03-03T10:59:59.140Z,996.02
2019-03-03T11:00:59.138Z,996.03
2019-03-03T11:01:59.135Z,995.98
2019-03-03T11:02:59.129Z,995.94
2019-03-03T11:03:59.123Z,996.00
2019-03-03T11:04:59.119Z,995.93
2019-03-03T11:05:59.116Z,995.98
2019-03-03T11:06:59.110Z,995.96
2019-03-03T11:07:59.105Z,995.93
2019-03-03T11:08:59.100Z,995.93
2019-03-03T11:09:59.102Z,995.95
2019-03-03T11:10:59.095Z,996.03
2019-03-03T11:11:59.088Z,995.86
2019-03-03T11:12:59.083Z,995.94
2019-03-03T11:13:59.101Z,995.99
2019-03-03T11:14:59.075Z,996.03
2019-03-03T11:15:59.070Z,995.91
2019-03-03T11:16:59.065Z,995.88
2019-03-03T11:17:59.061Z,995.92
2019-03-03T11:18:59.057Z,995.95
2019-03-03T11:19:59.051Z,995.87
2019-03-03T11:20:59.050Z,995.94
2019-03-03T11:21:59.047Z,995.86
2019-03-03T11:22:59.043Z,995.85
2019-03-03T11:23:59.034Z,995.87
2019-03-03T11:24:59.030Z,995.96
2019-03-03T11:25:59.026Z,995.89
2019-03-03T11:26:59.022Z,995.90
2019-03-03T11:27:59.017Z,995.93
2019-03-03T11:28:59.013Z,995.91
2019-03-03T11:29:59.008Z,995.81
2019-03-03T11:30:59.008Z,995.86
2019-03-03T11:31:58.998Z,995.75
2019-03-03T11:32:58.994Z,995.78
2019-03-03T11:33:58.990Z,995.82
2019-03-03T11:34:58.986Z,995.82
2019-03-03T11:35:58.982Z,995.81
2019-03-03T11:36:58.977Z,995.85
2019-03-03T11:37:58.975Z,995.90
2019-03-03T11:38:58.968Z,995.85
2019-03-03T11:39:58.963Z,995.84
2019-03-03T11:40:58.959Z,995.85
2019-03-03T11:41:58.957Z,995.88
2019-03-03T11:42:58.951Z,995.84
2019-03-03T11:43:58.945Z,995.82
2019-03-03T11:44:58.944Z,995.85
2019-03-03T11:45:58.939Z,995.77
2019-03-03T11:46:58.938Z,995.78
2019-03-03T11:48:04.134Z,995.75
2019-03-03T11:48:58.925Z,995.78
2019-03-03T11:49:58.921Z,995.67
2019-03-03T11:50:58.918Z,995.71
2019-03-03T11:51:58.911Z,995.66
2019-03-03T11:52:58.907Z,995.72
2019-03-03T11:53:58.904Z,995.67
2019-03-03T11:55:00.802Z,995.65
2019-03-03T11:55:58.898Z,995.66
2019-03-03T11:56:58.891Z,995.65
2019-03-03T11:57:58.887Z,995.61
2019-03-03T11:58:58.883Z,995.61
2019-03-03T11:59:58.878Z,995.60
2019-03-03T12:00:58.874Z,995.59
2019-03-03T12:01:58.870Z,995.60
2019-03-03T12:02:58.870Z,995.58
2019-03-03T12:03:58.863Z,995.69
2019-03-03T12:04:58.859Z,995.51
2019-03-03T12:05:58.855Z,995.64
2019-03-03T12:06:58.852Z,995.54
2019-03-03T12:07:58.846Z,995.52
2019-03-03T12:08:58.843Z,995.53
2019-03-03T12:09:58.838Z,995.46
2019-03-03T12:10:58.837Z,995.66
2019-03-03T12:11:58.831Z,995.52
2019-03-03T12:12:58.827Z,995.48
2019-03-03T12:13:58.824Z,995.55
2019-03-03T12:14:58.821Z,995.65
2019-03-03T12:15:58.819Z,995.50
2019-03-03T12:16:58.813Z,995.49
2019-03-03T12:17:58.808Z,995.50
2019-03-03T12:18:58.803Z,995.45
2019-03-03T12:19:58.798Z,995.48
2019-03-03T12:20:58.795Z,995.41
2019-03-03T12:21:58.791Z,995.46
2019-03-03T12:22:58.788Z,995.45
2019-03-03T12:23:58.783Z,995.51
2019-03-03T12:24:58.780Z,995.46
2019-03-03T12:25:58.778Z,995.42
2019-03-03T12:26:58.771Z,995.50
2019-03-03T12:27:58.766Z,995.54